Αρχική σελίδα
METAR-TAF:

METAR-TAF

Αεροδρόμια :

São Luís, Μαρανιάο, Βραζιλία

γεωγραφικό πλάτος: 02-36S, γεωγραφικό μήκος: 044-14W, υψόμετρο: 53 μ

Παρών καιρός

Η αναφορά έγινε 38 λεπτά πριν, στις 17:00 UTC
Άνεμος 7 kt από Α/BA
Θερμοκρασία 31°C
Υγρασία 59%
Πίεση 1010 hPa
Ορατότητα 10 χλμ και άνω
Διάσπαρτα νέφη σε ύψος 3000 πόδια

METAR: SBSL 191700Z 07007KT 9999 SCT030 31/22 Q1010

Χρόνος: 14:38 (17:38 UTC)

Πρόγνωση Καιρού

Η αναφορά έγινε 8 ώρες και 57 λεπτά πριν, στις 08:41 UTC
Η πρόγνωση ισχύει από τις 19 στις 12 UTC έως τις 20 στις 12 UTC
Άνεμος 7 kt από Α/BA
Ορατότητα 10 χλμ και άνω
Δεν υπάρχουν νέφη με βάση κάτω από τα 1500 μ. και δεν υπάρχουν νέφη σωρειτομελανίτες.
Προσωρινά
από 20 στις 06 UTC έως τις 20 στις 11 UTC
Άνεμος 5 kt από ΝA

TAF: SBSL 190841Z 1912/2012 06007KT CAVOK TX31/1917Z TN24/2009Z TEMPO 2006/2011 13005KT RMK PHI

Μετεωρολογικές αναφορές και προγνώσεις για περισσότερα από 4000 αεροδρόμια (δελτία METAR και TAF).

Οι διαθέσιμοι σταθμοί απεικονίζονται στο χάρτη με κίτρινες και κόκκινες κουκκίδες.

Μετακινήστε το ποντίκι πάνω από τις κουκκίδες για να δείτε το όνομα του σταθμού.

Στη συνέχεια, κάντε κλικ για να δείτε τις μετεωρολογικές αναφορές και τις προγνώσεις καιρού.

Για να αλλάξετε το χάρτη: κάντε κλικ στα πράσινα κουμπιά με τον μαύρο σταυρό για να ζουμάρετε, στο πράσινο κουμπί με την παύλα για να αφαιρέσετε το ζουμ ή στα πράσινα βέλη για να αντιπαραβάλλετε χάρτες.


METAR-TAF: